Time;durP1;ratioP1;P1;durP2;ratioP2;P2;SDS_P1;SDS_P2;PMS_P1;PMS_P2;Temp;Humidity;BMP_temperature;BMP_pressure;BME280_temperature;BME280_humidity;BME280_pressure;Samples;Min_cycle;Max_cycle;Signal;HPM_P1;HPM_P2
2023/04/30 00:00:23;;;;;;;9.40;3.97;;;7.30;1.00;;;;;;5011633;28;20061;-57
2023/04/30 00:02:49;;;;;;;7.90;3.53;;;;;;;;;;5010683;28;20419;-53
2023/04/30 00:05:15;;;;;;;11.40;4.38;;;7.20;1.00;;;;;;5011391;28;20049;-56
2023/04/30 00:07:41;;;;;;;8.20;3.78;;;7.20;1.00;;;;;;5009167;28;20035;-56
2023/04/30 00:10:10;;;;;;;9.32;4.15;;;;;;;;;;5008586;28;20041;-56
2023/04/30 00:12:37;;;;;;;9.82;3.92;;;7.20;1.00;;;;;;5010373;28;20286;-56
2023/04/30 00:15:02;;;;;;;8.60;3.55;;;7.00;1.00;;;;;;5010697;28;20392;-56
2023/04/30 00:17:28;;;;;;;10.13;3.70;;;7.00;1.00;;;;;;4993150;28;20045;-55
2023/04/30 00:19:55;;;;;;;11.95;4.28;;;;;;;;;;5010945;28;20045;-55
2023/04/30 00:22:21;;;;;;;7.47;3.55;;;;;;;;;;5011081;28;20048;-57
2023/04/30 00:24:47;;;;;;;7.95;3.58;;;6.90;1.00;;;;;;5010665;28;20495;-57
2023/04/30 00:27:13;;;;;;;8.45;4.00;;;;;;;;;;5010629;28;20249;-53
2023/04/30 00:29:39;;;;;;;8.90;3.90;;;;;;;;;;5010611;28;20045;-53
2023/04/30 00:32:05;;;;;;;8.10;4.18;;;;;;;;;;5010462;28;20117;-56
2023/04/30 00:34:31;;;;;;;9.57;3.70;;;7.00;85.00;;;;;;5010557;28;20042;-57
2023/04/30 00:36:57;;;;;;;9.60;3.72;;;;;;;;;;5010057;28;20083;-55
2023/04/30 00:39:22;;;;;;;11.40;4.72;;;7.10;83.60;;;;;;5005329;28;20049;-55
2023/04/30 00:41:48;;;;;;;10.80;4.78;;;7.40;99.90;;;;;;5009307;28;20049;-58
2023/04/30 00:44:14;;;;;;;8.68;4.05;;;7.20;99.90;;;;;;5010629;28;20034;-58
2023/04/30 00:46:40;;;;;;;10.48;3.95;;;;;;;;;;5009876;28;20061;-54
2023/04/30 00:49:05;;;;;;;9.38;3.90;;;7.10;99.90;;;;;;5010841;28;20038;-55
2023/04/30 00:51:32;;;;;;;8.25;4.10;;;;;;;;;;5010574;28;20518;-54
2023/04/30 00:54:02;;;;;;;12.88;4.03;;;;;;;;;;5004688;28;20133;-54
2023/04/30 00:56:31;;;;;;;9.13;4.38;;;;;;;;;;5006536;28;20044;-55
2023/04/30 00:58:57;;;;;;;9.98;4.03;;;7.20;99.90;;;;;;5003490;28;20077;-56
2023/04/30 01:01:24;;;;;;;10.32;4.53;;;7.30;99.90;;;;;;5009172;28;20084;-55
2023/04/30 01:03:51;;;;;;;11.02;5.13;;;;;;;;;;5010142;28;20084;-52
2023/04/30 01:06:16;;;;;;;10.00;4.15;;;7.20;99.90;;;;;;5010184;28;20113;-53
2023/04/30 01:08:43;;;;;;;10.68;3.85;;;;;;;;;;5008813;28;20065;-55
2023/04/30 01:11:21;;;;;;;10.60;4.53;;;8.00;99.90;;;;;;5010126;28;20411;-57
2023/04/30 01:14:07;;;;;;;10.90;3.92;;;7.50;99.90;;;;;;5008134;28;20492;-55
2023/04/30 01:16:45;;;;;;;8.25;3.97;;;7.20;99.90;;;;;;5010017;28;20061;-55
2023/04/30 01:19:37;;;;;;;8.65;4.10;;;;;;;;;;5003165;28;20302;-54
2023/04/30 01:22:04;;;;;;;9.18;4.00;;;;;;;;;;5000875;28;20056;-56
2023/04/30 01:25:20;;;;;;;9.32;4.10;;;7.80;99.90;;;;;;5009275;28;20466;-57
2023/04/30 01:28:02;;;;;;;8.95;4.13;;;;;;;;;;4962140;28;20088;-57
2023/04/30 01:30:32;;;;;;;9.40;4.38;;;8.20;99.90;;;;;;4971886;28;20058;-53
2023/04/30 01:32:58;;;;;;;10.80;4.47;;;7.90;99.90;;;;;;5000492;28;20427;-54
2023/04/30 01:35:31;;;;;;;11.07;4.95;;;;;;;;;;5008694;28;20042;-56
2023/04/30 01:38:03;;;;;;;9.23;4.30;;;;;;;;;;5009649;28;20121;-56
2023/04/30 01:40:46;;;;;;;11.23;4.35;;;7.20;99.90;;;;;;5009986;28;20301;-56
2023/04/30 01:43:34;;;;;;;10.15;4.53;;;7.60;99.90;;;;;;5002475;28;20046;-55
2023/04/30 01:46:08;;;;;;;11.73;4.68;;;7.50;99.90;;;;;;5009625;28;20038;-53
2023/04/30 01:48:52;;;;;;;13.05;4.40;;;7.20;99.90;;;;;;5009370;28;20070;-57
2023/04/30 01:51:27;;;;;;;10.60;5.03;;;;;;;;;;5009516;28;20122;-56
2023/04/30 01:53:55;;;;;;;10.98;4.60;;;;;;;;;;5009032;28;20563;-55
2023/04/30 01:56:30;;;;;;;9.85;4.72;;;8.40;99.90;;;;;;5009505;28;20034;-56
2023/04/30 01:58:56;;;;;;;10.77;5.60;;;;;;;;;;5008973;28;20451;-57
2023/04/30 02:01:26;;;;;;;11.60;4.72;;;;;;;;;;5009587;28;20205;-55
2023/04/30 02:03:51;;;;;;;19.73;5.53;;;7.70;99.90;;;;;;5007878;28;20075;-57
2023/04/30 02:06:17;;;;;;;11.27;4.63;;;7.80;99.90;;;;;;5009438;28;20038;-54
2023/04/30 02:08:42;;;;;;;10.18;4.72;;;7.70;99.90;;;;;;5009097;28;20045;-57
2023/04/30 02:11:09;;;;;;;7.68;4.30;;;;;;;;;;5009181;28;20037;-54
2023/04/30 02:13:35;;;;;;;12.95;4.97;;;7.50;99.90;;;;;;5008839;28;20117;-54
2023/04/30 02:16:00;;;;;;;12.48;4.97;;;7.80;99.90;;;;;;5008956;28;20042;-53
2023/04/30 02:18:26;;;;;;;10.52;4.90;;;7.80;99.90;;;;;;5007920;28;20088;-56
2023/04/30 02:20:53;;;;;;;8.77;4.32;;;;;;;;;;5008995;28;20129;-55
2023/04/30 02:23:19;;;;;;;11.90;4.85;;;7.80;99.90;;;;;;5009119;28;20061;-56
2023/04/30 02:25:44;;;;;;;14.35;5.82;;;7.80;99.90;;;;;;5008360;28;20103;-55
2023/04/30 02:28:10;;;;;;;9.25;4.15;;;7.60;99.90;;;;;;5009400;28;20064;-55
2023/04/30 02:30:35;;;;;;;10.20;4.82;;;7.80;99.90;;;;;;5009379;28;20502;-57
2023/04/30 02:33:02;;;;;;;10.93;4.68;;;7.80;99.90;;;;;;5008793;28;20030;-56
2023/04/30 02:35:27;;;;;;;10.52;4.82;;;7.70;99.90;;;;;;4991583;28;20053;-56
2023/04/30 02:37:53;;;;;;;10.30;4.95;;;7.80;99.90;;;;;;5008721;28;20042;-57
2023/04/30 02:40:19;;;;;;;9.52;4.78;;;7.70;99.90;;;;;;5008857;28;20112;-54
2023/04/30 02:42:45;;;;;;;12.13;5.43;;;7.60;99.90;;;;;;5009020;28;20041;-56
2023/04/30 02:45:10;;;;;;;9.10;4.63;;;7.80;99.90;;;;;;5009349;28;20030;-57
2023/04/30 02:47:36;;;;;;;9.65;4.50;;;7.80;99.90;;;;;;5008934;28;20072;-54
2023/04/30 02:50:01;;;;;;;10.02;4.53;;;7.80;99.90;;;;;;5008872;28;20096;-57
2023/04/30 02:52:27;;;;;;;9.82;4.82;;;8.10;99.90;;;;;;5007584;28;20049;-57
2023/04/30 02:54:53;;;;;;;10.40;4.45;;;;;;;;;;5008452;28;20041;-58
2023/04/30 02:57:19;;;;;;;9.63;4.28;;;;;;;;;;5008637;28;20380;-57
2023/04/30 02:59:45;;;;;;;10.45;4.13;;;;;;;;;;5011001;28;20038;-55
2023/04/30 03:02:12;;;;;;;9.68;4.15;;;;;;;;;;5012194;28;20045;-56
2023/04/30 03:04:38;;;;;;;9.93;4.28;;;7.60;99.90;;;;;;5012548;28;20531;-55
2023/04/30 03:07:05;;;;;;;9.93;4.30;;;7.60;99.90;;;;;;5011944;28;20053;-53
2023/04/30 03:09:31;;;;;;;14.63;4.30;;;;;;;;;;5012090;28;20041;-53
2023/04/30 03:11:57;;;;;;;8.32;3.60;;;7.50;99.90;;;;;;5011941;28;20041;-53
2023/04/30 03:14:22;;;;;;;8.80;3.90;;;7.50;99.90;;;;;;5011955;28;20046;-57
2023/04/30 03:16:48;;;;;;;14.05;5.00;;;;;;;;;;5003422;28;20038;-58
2023/04/30 03:19:14;;;;;;;8.90;3.38;;;7.50;99.90;;;;;;5012310;28;20030;-57
2023/04/30 03:21:40;;;;;;;12.65;4.00;;;;;;;;;;5010596;28;20058;-58
2023/04/30 03:24:06;;;;;;;13.02;4.13;;;7.00;99.90;;;;;;5003297;28;20091;-54
2023/04/30 03:26:32;;;;;;;9.88;4.07;;;;;;;;;;5010321;28;20511;-55
2023/04/30 03:28:59;;;;;;;7.93;4.05;;;7.30;99.90;;;;;;5010565;28;20068;-55
2023/04/30 03:31:25;;;;;;;10.38;4.38;;;7.20;99.90;;;;;;5011974;28;20046;-57
2023/04/30 03:33:50;;;;;;;10.30;4.10;;;7.20;99.90;;;;;;5011505;28;20280;-56
2023/04/30 03:36:16;;;;;;;8.02;3.53;;;7.20;99.90;;;;;;5010643;28;20407;-57
2023/04/30 03:38:42;;;;;;;9.98;3.10;;;;;;;;;;5009953;28;20464;-55
2023/04/30 03:41:07;;;;;;;9.65;3.63;;;6.90;99.90;;;;;;5012047;28;20045;-57
2023/04/30 03:43:33;;;;;;;9.77;3.38;;;6.90;99.90;;;;;;5011684;28;20050;-53
2023/04/30 03:45:59;;;;;;;11.13;3.80;;;;;;;;;;5006598;28;20042;-56
2023/04/30 03:48:26;;;;;;;12.85;3.78;;;6.90;99.90;;;;;;5011670;28;20034;-53
2023/04/30 03:50:51;;;;;;;10.80;3.80;;;6.70;99.90;;;;;;5010864;28;20037;-55
2023/04/30 03:53:17;;;;;;;9.88;3.45;;;6.70;99.90;;;;;;5012068;28;20038;-55
2023/04/30 03:55:42;;;;;;;11.70;3.70;;;6.70;99.90;;;;;;5009954;28;20117;-57
2023/04/30 03:58:09;;;;;;;10.55;3.28;;;;;;;;;;5010007;28;20080;-52
2023/04/30 04:00:35;;;;;;;8.38;3.50;;;;;;;;;;5008718;28;20286;-54
2023/04/30 04:03:01;;;;;;;12.45;3.63;;;6.60;99.90;;;;;;5008542;28;20070;-57
2023/04/30 04:05:28;;;;;;;9.75;3.55;;;;;;;;;;5009625;28;20030;-53
2023/04/30 04:07:53;;;;;;;9.18;3.70;;;6.50;99.90;;;;;;5010885;28;20037;-55
2023/04/30 04:10:19;;;;;;;10.95;3.45;;;;;;;;;;5009988;28;20492;-54
2023/04/30 04:12:45;;;;;;;7.75;3.28;;;;;;;;;;5009313;28;20495;-55
2023/04/30 04:15:12;;;;;;;8.43;3.80;;;;;;;;;;5011824;28;20042;-53
2023/04/30 04:17:38;;;;;;;10.73;3.60;;;;;;;;;;5003491;28;20483;-56
2023/04/30 04:20:05;;;;;;;13.35;3.90;;;;;;;;;;5009912;28;20427;-53
2023/04/30 04:22:30;;;;;;;7.30;3.47;;;6.40;99.90;;;;;;5011174;28;20041;-56
2023/04/30 04:24:56;;;;;;;8.55;3.92;;;6.30;99.90;;;;;;5010724;28;20049;-58
2023/04/30 04:27:22;;;;;;;9.13;3.75;;;;;;;;;;5010679;28;20033;-56
2023/04/30 04:29:48;;;;;;;10.70;4.35;;;;;;;;;;5009324;28;20054;-54
2023/04/30 04:32:14;;;;;;;9.55;4.00;;;;;;;;;;5010610;28;20034;-54
2023/04/30 04:34:42;;;;;;;10.27;4.18;;;;;;;;;;5010938;28;20057;-56
2023/04/30 04:37:08;;;;;;;9.82;3.70;;;;;;;;;;5010533;28;20113;-53
2023/04/30 04:39:36;;;;;;;7.78;3.42;;;6.30;99.90;;;;;;5010663;28;20419;-53
2023/04/30 04:42:02;;;;;;;10.07;3.90;;;6.30;99.90;;;;;;5010224;28;20041;-57
2023/04/30 04:44:28;;;;;;;7.68;3.75;;;6.20;99.90;;;;;;5010797;28;20040;-56
2023/04/30 04:46:55;;;;;;;8.52;4.10;;;6.20;99.90;;;;;;5008970;28;20484;-57
2023/04/30 04:49:21;;;;;;;11.02;4.47;;;;;;;;;;5009486;28;20056;-57
2023/04/30 04:51:47;;;;;;;12.52;5.32;;;6.30;99.90;;;;;;5010164;28;20117;-54
2023/04/30 04:54:12;;;;;;;13.95;4.88;;;6.40;1.00;;;;;;5010487;28;20117;-55
2023/04/30 04:56:38;;;;;;;11.68;4.72;;;;;;;;;;5008965;28;20104;-57
2023/04/30 04:59:04;;;;;;;8.75;3.83;;;6.30;1.00;;;;;;5008711;28;20077;-55
2023/04/30 05:01:29;;;;;;;12.05;5.10;;;6.50;1.00;;;;;;5010273;28;20320;-54
2023/04/30 05:03:55;;;;;;;9.38;3.85;;;6.50;1.00;;;;;;5009687;28;20488;-57
2023/04/30 05:06:21;;;;;;;10.50;4.53;;;;;;;;;;5010418;28;20045;-56
2023/04/30 05:08:47;;;;;;;9.70;3.80;;;6.80;1.00;;;;;;5010016;28;20060;-54
2023/04/30 05:11:13;;;;;;;10.77;3.90;;;;;;;;;;5010122;28;20045;-56
2023/04/30 05:13:40;;;;;;;9.48;4.45;;;;;;;;;;5010598;28;20488;-56
2023/04/30 05:16:06;;;;;;;13.20;5.80;;;7.00;1.00;;;;;;5009255;28;20042;-57
2023/04/30 05:18:31;;;;;;;12.43;3.72;;;7.00;1.00;;;;;;5008929;28;20041;-57
2023/04/30 05:20:57;;;;;;;13.25;3.88;;;7.30;1.00;;;;;;5008458;28;20172;-55
2023/04/30 05:23:22;;;;;;;8.27;4.00;;;7.30;1.00;;;;;;5006703;28;20085;-55
2023/04/30 05:25:52;;;;;;;11.55;4.22;;;;;;;;;;5009743;28;20040;-56
2023/04/30 05:28:18;;;;;;;9.27;4.35;;;;;;;;;;5008710;28;20045;-53
2023/04/30 05:30:44;;;;;;;12.18;3.70;;;;;;;;;;5009672;28;20050;-54
2023/04/30 05:33:10;;;;;;;10.35;4.47;;;;;;;;;;5008041;28;20055;-56
2023/04/30 05:35:36;;;;;;;9.77;3.80;;;7.20;1.00;;;;;;5009747;28;20049;-54
2023/04/30 05:38:02;;;;;;;8.40;4.10;;;;;;;;;;5009719;28;20034;-58
2023/04/30 05:40:29;;;;;;;9.88;4.22;;;;;;;;;;5009748;28;20049;-55
2023/04/30 05:42:55;;;;;;;11.00;3.97;;;;;;;;;;5009450;28;20393;-55
2023/04/30 05:45:21;;;;;;;10.25;3.80;;;8.00;99.90;;;;;;5008272;28;20040;-57
2023/04/30 05:47:47;;;;;;;11.70;3.90;;;;;;;;;;5009732;28;20030;-55
2023/04/30 05:50:13;;;;;;;10.13;3.88;;;7.70;99.90;;;;;;5009570;28;20095;-57
2023/04/30 05:52:38;;;;;;;9.63;4.22;;;8.30;99.90;;;;;;5008453;28;20080;-57
2023/04/30 05:55:05;;;;;;;10.20;4.45;;;8.40;99.90;;;;;;5008290;28;20042;-56
2023/04/30 05:57:30;;;;;;;9.75;4.28;;;8.60;99.90;;;;;;5009287;28;20045;-58
2023/04/30 05:59:56;;;;;;;8.50;3.75;;;8.40;99.90;;;;;;5009514;28;20387;-55
2023/04/30 06:02:22;;;;;;;9.90;3.75;;;8.80;99.90;;;;;;5009351;28;20037;-56
2023/04/30 06:04:47;;;;;;;12.35;4.50;;;8.70;99.90;;;;;;5009888;28;20042;-55
2023/04/30 06:07:13;;;;;;;10.57;3.40;;;8.80;99.90;;;;;;5006078;28;20079;-55
2023/04/30 06:09:38;;;;;;;8.80;3.97;;;9.10;99.90;;;;;;5009412;28;20038;-56
2023/04/30 06:12:05;;;;;;;9.02;4.57;;;;;;;;;;5009039;28;20049;-56
2023/04/30 06:14:31;;;;;;;10.68;3.42;;;;;;;;;;5008714;28;20070;-54
2023/04/30 06:16:57;;;;;;;8.80;3.50;;;9.20;99.90;;;;;;5008885;28;20066;-55
2023/04/30 06:19:22;;;;;;;10.18;3.60;;;9.40;99.90;;;;;;5005197;28;20676;-56
2023/04/30 06:21:48;;;;;;;6.82;3.40;;;9.30;99.90;;;;;;5006821;28;20052;-58
2023/04/30 06:24:13;;;;;;;10.20;3.55;;;9.20;99.90;;;;;;5009252;28;20499;-57
2023/04/30 06:26:39;;;;;;;8.75;3.97;;;;;;;;;;5009133;28;20045;-55
2023/04/30 06:29:05;;;;;;;8.73;3.38;;;9.60;91.50;;;;;;5009210;28;20407;-53
2023/04/30 06:31:30;;;;;;;11.70;3.95;;;10.20;56.80;;;;;;5002788;28;20093;-54
2023/04/30 06:33:56;;;;;;;9.23;3.50;;;10.30;37.30;;;;;;5008487;28;20095;-57
2023/04/30 06:36:22;;;;;;;8.18;4.28;;;9.70;26.00;;;;;;5011563;28;20038;-56
2023/04/30 06:38:47;;;;;;;9.50;4.00;;;9.90;11.00;;;;;;5011887;28;20329;-55
2023/04/30 06:41:14;;;;;;;9.93;4.25;;;9.90;1.00;;;;;;5012907;28;20491;-56
2023/04/30 06:43:40;;;;;;;9.50;3.60;;;9.60;1.00;;;;;;5013144;28;20530;-57
2023/04/30 06:46:05;;;;;;;10.38;4.97;;;10.10;1.00;;;;;;5012508;28;20145;-56
2023/04/30 06:48:31;;;;;;;12.05;4.07;;;10.30;1.00;;;;;;5011838;28;20088;-53
2023/04/30 06:50:57;;;;;;;10.25;3.45;;;10.40;1.00;;;;;;5012507;28;20033;-56
2023/04/30 06:53:23;;;;;;;12.32;4.22;;;10.50;1.00;;;;;;5013139;28;20045;-55
2023/04/30 06:55:49;;;;;;;9.68;3.97;;;10.40;1.00;;;;;;5012841;28;20030;-56
2023/04/30 06:58:15;;;;;;;12.98;4.13;;;11.00;1.00;;;;;;5011328;28;20042;-57
2023/04/30 07:00:41;;;;;;;9.90;4.68;;;;;;;;;;5012795;28;20342;-53
2023/04/30 07:03:07;;;;;;;11.70;3.78;;;10.60;99.90;;;;;;5012294;28;20517;-53
2023/04/30 07:05:32;;;;;;;10.18;3.58;;;10.80;99.90;;;;;;5012884;28;20038;-53
2023/04/30 07:08:00;;;;;;;10.85;4.28;;;;;;;;;;5012656;28;20140;-58
2023/04/30 07:10:26;;;;;;;9.77;3.55;;;11.00;99.90;;;;;;5012774;28;20033;-57
2023/04/30 07:12:52;;;;;;;8.02;3.60;;;11.00;99.90;;;;;;5012221;28;20509;-56
2023/04/30 07:15:18;;;;;;;9.63;3.70;;;11.10;99.90;;;;;;5010574;28;20050;-57
2023/04/30 07:17:44;;;;;;;10.05;4.32;;;11.00;99.90;;;;;;5012219;28;20030;-57
2023/04/30 07:20:11;;;;;;;9.90;3.70;;;11.00;99.90;;;;;;5012171;28;20033;-53
2023/04/30 07:22:36;;;;;;;11.20;4.63;;;11.00;99.90;;;;;;5012389;28;20406;-53
2023/04/30 07:25:02;;;;;;;7.85;3.50;;;10.80;99.90;;;;;;5011883;28;20046;-54
2023/04/30 07:27:27;;;;;;;8.27;3.40;;;10.70;99.90;;;;;;5012146;28;20038;-55
2023/04/30 07:29:54;;;;;;;11.35;3.75;;;11.90;99.90;;;;;;5011820;28;20042;-54
2023/04/30 07:32:20;;;;;;;11.25;4.03;;;11.60;99.90;;;;;;5004164;28;20048;-54
2023/04/30 07:34:46;;;;;;;9.48;3.60;;;11.60;99.90;;;;;;5012053;28;20487;-55
2023/04/30 07:37:12;;;;;;;9.05;3.83;;;11.30;99.90;;;;;;5010514;28;20038;-51
2023/04/30 07:39:37;;;;;;;11.70;4.00;;;11.60;99.90;;;;;;5012088;28;20272;-51
2023/04/30 07:42:04;;;;;;;10.85;3.85;;;11.60;99.90;;;;;;5011198;28;20120;-54
2023/04/30 07:44:30;;;;;;;11.98;3.63;;;12.00;99.90;;;;;;5011480;28;20034;-51
2023/04/30 07:46:56;;;;;;;10.18;3.17;;;;;;;;;;5011470;28;20049;-55
2023/04/30 07:49:22;;;;;;;7.78;3.50;;;11.20;99.90;;;;;;5012096;28;20030;-55
2023/04/30 07:51:48;;;;;;;8.55;3.15;;;;;;;;;;5010415;28;20523;-54
2023/04/30 07:54:14;;;;;;;9.13;3.15;;;11.80;99.90;;;;;;5011432;28;20409;-55
2023/04/30 07:56:40;;;;;;;8.88;3.42;;;12.50;99.90;;;;;;5011372;28;20113;-52
2023/04/30 07:59:06;;;;;;;7.70;3.30;;;12.10;99.90;;;;;;5010918;28;20038;-55
2023/04/30 08:01:31;;;;;;;14.45;3.40;;;12.60;99.90;;;;;;5011557;28;20442;-55
2023/04/30 08:03:57;;;;;;;8.85;3.10;;;12.50;99.90;;;;;;5011011;28;20092;-55
2023/04/30 08:06:23;;;;;;;10.13;3.88;;;12.20;99.90;;;;;;5011092;28;20600;-54
2023/04/30 08:08:48;;;;;;;9.80;2.95;;;12.00;99.90;;;;;;5011386;28;20034;-54
2023/04/30 08:11:15;;;;;;;8.60;3.22;;;12.80;99.90;;;;;;5010494;28;20072;-54
2023/04/30 08:13:41;;;;;;;9.18;3.47;;;12.60;99.90;;;;;;5010564;28;20384;-55
2023/04/30 08:16:07;;;;;;;11.48;3.55;;;12.10;99.90;;;;;;5010421;28;20041;-55
2023/04/30 08:18:33;;;;;;;10.48;3.33;;;13.20;99.90;;;;;;5011225;28;20084;-55
2023/04/30 08:21:00;;;;;;;11.30;3.70;;;12.90;99.90;;;;;;5010560;28;20037;-56
2023/04/30 08:23:26;;;;;;;8.65;2.95;;;13.10;99.90;;;;;;5009885;28;20124;-55
2023/04/30 08:25:51;;;;;;;14.48;3.35;;;13.20;99.90;;;;;;5010530;28;20103;-55
2023/04/30 08:28:17;;;;;;;8.05;2.90;;;13.20;99.90;;;;;;5010605;28;21073;-53
2023/04/30 08:30:43;;;;;;;9.30;2.90;;;12.80;99.90;;;;;;5010836;28;20049;-55
2023/04/30 08:33:10;;;;;;;6.30;2.65;;;12.80;99.90;;;;;;5009205;28;20061;-55
2023/04/30 08:35:35;;;;;;;9.55;2.90;;;13.60;99.90;;;;;;5009093;28;20557;-55
2023/04/30 08:38:01;;;;;;;8.60;3.17;;;13.50;99.90;;;;;;5010517;28;20042;-54
2023/04/30 08:40:27;;;;;;;9.35;2.67;;;13.40;99.90;;;;;;5010288;28;20088;-53
2023/04/30 08:43:03;;;;;;;9.27;2.53;;;13.10;99.90;;;;;;5010828;28;20042;-55
2023/04/30 08:45:31;;;;;;;7.38;2.65;;;14.00;99.90;;;;;;5009265;28;20088;-54
2023/04/30 08:47:58;;;;;;;9.43;3.38;;;13.40;99.90;;;;;;5010772;28;20057;-56
2023/04/30 08:50:24;;;;;;;9.75;2.90;;;13.50;88.70;;;;;;5004554;28;20042;-52
2023/04/30 08:52:50;;;;;;;8.82;2.83;;;14.10;90.40;;;;;;5008797;28;20109;-54
2023/04/30 08:55:15;;;;;;;8.32;3.15;;;14.00;91.70;;;;;;5008747;28;20033;-54
2023/04/30 08:57:41;;;;;;;8.85;3.10;;;13.30;83.20;;;;;;5009383;28;20503;-55
2023/04/30 09:00:07;;;;;;;9.18;3.22;;;13.50;84.30;;;;;;5010617;28;20038;-54
2023/04/30 09:02:34;;;;;;;10.40;3.45;;;13.70;78.20;;;;;;5010051;28;20587;-53
2023/04/30 09:04:59;;;;;;;10.10;2.95;;;14.00;84.30;;;;;;5002358;28;20369;-55
2023/04/30 09:07:27;;;;;;;9.90;3.30;;;15.10;76.80;;;;;;5005173;28;20051;-54
2023/04/30 09:09:53;;;;;;;8.55;2.85;;;14.20;80.40;;;;;;5008895;28;20054;-56
2023/04/30 09:12:19;;;;;;;12.80;3.80;;;14.50;64.00;;;;;;5009805;28;20053;-52
2023/04/30 09:15:00;;;;;;;10.50;3.20;;;14.60;66.50;;;;;;5008283;28;20050;-56
2023/04/30 09:17:26;;;;;;;10.30;3.30;;;14.40;75.70;;;;;;5003514;28;20034;-54
2023/04/30 09:19:52;;;;;;;8.30;3.53;;;14.00;65.60;;;;;;5010054;28;20472;-52
2023/04/30 09:22:20;;;;;;;8.45;2.60;;;14.50;61.00;;;;;;5009803;28;20033;-56
2023/04/30 09:24:48;;;;;;;9.00;2.47;;;14.10;62.10;;;;;;5008998;28;20084;-55
2023/04/30 09:27:21;;;;;;;7.40;2.70;;;14.10;51.60;;;;;;5008146;28;20403;-52
2023/04/30 09:29:47;;;;;;;9.43;3.35;;;14.60;45.30;;;;;;5009027;28;20046;-53
2023/04/30 09:32:13;;;;;;;8.60;2.50;;;13.50;46.00;;;;;;5007660;28;20053;-56
2023/04/30 09:34:39;;;;;;;7.60;2.92;;;13.60;38.60;;;;;;5008726;28;20049;-56
2023/04/30 09:37:06;;;;;;;8.95;2.97;;;14.10;41.00;;;;;;5007765;28;20488;-56
2023/04/30 09:39:32;;;;;;;9.77;3.05;;;14.40;40.70;;;;;;5007455;28;20042;-55
2023/04/30 09:42:08;;;;;;;8.50;2.90;;;14.90;37.20;;;;;;5009555;28;20230;-55
2023/04/30 09:44:37;;;;;;;10.15;3.78;;;14.30;36.40;;;;;;5009603;28;20046;-56
2023/04/30 09:47:03;;;;;;;8.93;3.63;;;14.40;37.30;;;;;;5009042;28;20139;-58
2023/04/30 09:49:29;;;;;;;9.05;3.42;;;14.10;32.20;;;;;;5008696;28;20491;-54
2023/04/30 09:51:56;;;;;;;9.15;3.30;;;14.50;34.20;;;;;;5009594;28;20038;-56
2023/04/30 09:54:25;;;;;;;10.48;4.15;;;14.00;35.90;;;;;;4991517;28;20092;-56
2023/04/30 09:56:53;;;;;;;7.93;3.03;;;14.20;30.40;;;;;;5009220;28;20042;-55
2023/04/30 09:59:22;;;;;;;9.23;3.28;;;14.00;37.50;;;;;;5009284;28;20052;-56
2023/04/30 10:01:49;;;;;;;7.32;3.42;;;13.20;35.10;;;;;;5008140;28;20284;-54
2023/04/30 10:04:16;;;;;;;9.05;2.85;;;13.90;37.10;;;;;;5007747;28;20038;-54
2023/04/30 10:06:42;;;;;;;9.32;2.65;;;13.80;33.80;;;;;;5009596;28;20046;-54
2023/04/30 10:09:10;;;;;;;10.35;3.20;;;13.00;25.30;;;;;;5012236;28;20053;-54
2023/04/30 10:11:37;;;;;;;9.35;3.30;;;13.50;34.30;;;;;;5013272;28;20041;-55
2023/04/30 10:14:09;;;;;;;10.73;4.03;;;13.40;34.70;;;;;;5013678;28;20078;-56
2023/04/30 10:16:56;;;;;;;10.82;3.88;;;13.30;39.20;;;;;;5011870;28;20073;-53
2023/04/30 10:19:23;;;;;;;7.60;2.90;;;13.10;50.60;;;;;;5013495;28;20126;-55
2023/04/30 10:21:50;;;;;;;9.45;3.00;;;;;;;;;;5013208;28;20407;-54
2023/04/30 10:24:18;;;;;;;14.00;3.65;;;13.00;38.10;;;;;;5013052;28;20071;-53
2023/04/30 10:26:45;;;;;;;6.70;3.35;;;13.20;38.20;;;;;;5013067;28;20113;-56
2023/04/30 10:29:12;;;;;;;7.93;3.03;;;13.20;39.70;;;;;;5013189;28;20042;-56
2023/04/30 10:31:40;;;;;;;11.85;3.63;;;13.70;41.90;;;;;;5013215;28;20120;-54
2023/04/30 10:34:13;;;;;;;7.28;2.88;;;12.90;40.10;;;;;;5011483;28;20053;-56
2023/04/30 10:36:47;;;;;;;9.13;4.03;;;13.90;34.70;;;;;;5012771;28;20046;-53
2023/04/30 10:39:14;;;;;;;7.10;2.63;;;12.90;36.70;;;;;;5009271;28;20080;-55
2023/04/30 10:41:43;;;;;;;7.70;3.00;;;13.10;38.10;;;;;;5011734;28;20041;-56
2023/04/30 10:44:08;;;;;;;7.45;3.42;;;13.60;36.10;;;;;;5012819;28;20089;-56
2023/04/30 10:46:35;;;;;;;8.18;3.20;;;12.90;33.60;;;;;;5012699;28;20077;-51
2023/04/30 10:49:01;;;;;;;6.43;3.15;;;13.30;28.50;;;;;;5012851;28;20033;-55
2023/04/30 10:51:53;;;;;;;7.20;2.75;;;13.20;35.20;;;;;;5010999;28;20487;-55
2023/04/30 10:54:27;;;;;;;10.30;3.05;;;13.90;36.30;;;;;;5012568;28;20042;-54
2023/04/30 10:56:55;;;;;;;6.68;2.55;;;14.20;43.80;;;;;;5011171;28;20538;-53
2023/04/30 10:59:21;;;;;;;6.25;2.58;;;13.90;34.10;;;;;;5011089;28;20045;-54
2023/04/30 11:01:58;;;;;;;6.72;2.53;;;13.90;33.20;;;;;;5012422;28;20124;-51
2023/04/30 11:04:24;;;;;;;5.82;2.72;;;14.00;41.30;;;;;;5010856;28;20502;-55
2023/04/30 11:06:55;;;;;;;7.45;2.30;;;14.20;24.10;;;;;;5012487;28;20037;-54
2023/04/30 11:09:42;;;;;;;4.88;2.08;;;14.30;13.30;;;;;;5012564;28;20034;-55
2023/04/30 11:12:19;;;;;;;5.00;2.00;;;14.10;40.00;;;;;;5011717;28;20042;-55
2023/04/30 11:14:45;;;;;;;5.35;2.00;;;14.00;5.90;;;;;;5010544;28;20049;-54
2023/04/30 11:17:20;;;;;;;8.27;2.38;;;13.90;31.30;;;;;;5011830;28;20034;-56
2023/04/30 11:19:50;;;;;;;7.22;1.98;;;14.10;31.80;;;;;;4993866;28;20076;-54
2023/04/30 11:22:24;;;;;;;4.90;1.48;;;13.60;28.30;;;;;;5010567;28;20403;-54
2023/04/30 11:24:51;;;;;;;4.60;1.60;;;14.30;35.80;;;;;;5011093;28;20045;-57
2023/04/30 11:27:27;;;;;;;4.10;1.77;;;14.40;29.20;;;;;;4993994;28;20389;-52
2023/04/30 11:29:54;;;;;;;5.95;1.92;;;14.10;2.80;;;;;;5011981;28;20411;-55
2023/04/30 11:32:21;;;;;;;6.38;2.13;;;14.60;22.60;;;;;;5011759;28;20034;-53
2023/04/30 11:34:47;;;;;;;7.53;1.80;;;14.70;18.40;;;;;;5012144;28;20038;-56
2023/04/30 11:37:23;;;;;;;5.70;1.98;;;14.50;22.30;;;;;;5011451;28;20096;-56
2023/04/30 11:39:49;;;;;;;6.78;2.30;;;14.70;1.00;;;;;;5010761;28;20073;-54
2023/04/30 11:42:19;;;;;;;5.03;1.83;;;15.10;22.90;;;;;;5011313;28;20042;-52
2023/04/30 11:44:45;;;;;;;5.63;2.17;;;15.00;27.60;;;;;;5012063;28;20385;-55
2023/04/30 11:47:13;;;;;;;4.90;1.95;;;14.80;19.50;;;;;;5011250;28;20052;-53
2023/04/30 11:49:39;;;;;;;6.00;2.10;;;14.90;10.90;;;;;;5010463;28;20045;-56
2023/04/30 11:52:05;;;;;;;5.95;1.88;;;15.50;16.80;;;;;;5011377;28;20292;-54
2023/04/30 11:54:31;;;;;;;6.20;2.00;;;15.70;15.60;;;;;;5011512;28;20040;-53
2023/04/30 11:57:02;;;;;;;5.65;1.80;;;16.10;13.20;;;;;;5011309;28;20041;-53
2023/04/30 11:59:28;;;;;;;6.00;2.22;;;16.00;11.90;;;;;;5011400;28;20403;-55
2023/04/30 12:01:54;;;;;;;5.40;1.92;;;16.30;11.70;;;;;;5011635;28;20453;-53
2023/04/30 12:04:20;;;;;;;4.72;1.77;;;16.30;9.20;;;;;;5011212;28;20034;-54
2023/04/30 12:06:46;;;;;;;7.95;2.30;;;16.90;2.10;;;;;;5014614;28;20038;-56
2023/04/30 12:09:12;;;;;;;4.95;1.95;;;16.80;8.80;;;;;;5009904;28;20521;-54
2023/04/30 12:11:38;;;;;;;7.72;2.33;;;17.00;1.00;;;;;;5011198;28;20054;-53
2023/04/30 12:14:06;;;;;;;4.70;1.73;;;17.10;1.00;;;;;;5010828;28;20377;-56
2023/04/30 12:16:49;;;;;;;5.55;1.50;;;17.50;1.00;;;;;;5010375;28;20038;-56
2023/04/30 12:19:19;;;;;;;4.35;1.52;;;17.80;1.00;;;;;;5011153;28;20048;-56
2023/04/30 12:21:47;;;;;;;5.97;1.88;;;18.60;1.00;;;;;;5010998;28;20388;-55
2023/04/30 12:24:13;;;;;;;5.90;1.63;;;19.50;1.00;;;;;;5010944;28;20046;-54
2023/04/30 12:26:40;;;;;;;3.92;1.58;;;20.40;1.00;;;;;;5010918;28;20065;-56
2023/04/30 12:29:17;;;;;;;5.57;1.55;;;23.60;1.00;;;;;;5011988;28;20046;-56
2023/04/30 12:31:44;;;;;;;5.10;2.05;;;26.10;1.00;;;;;;5008394;28;20042;-54
2023/04/30 12:34:12;;;;;;;4.82;1.60;;;26.00;1.00;;;;;;5010844;28;20042;-56
2023/04/30 12:36:42;;;;;;;5.78;1.67;;;27.20;1.00;;;;;;5004901;28;20531;-54
2023/04/30 12:39:10;;;;;;;5.90;1.50;;;28.30;1.00;;;;;;5007403;28;20034;-53
2023/04/30 12:41:41;;;;;;;4.47;1.50;;;28.70;1.00;;;;;;5010371;28;20084;-55
2023/04/30 12:44:22;;;;;;;4.93;1.85;;;31.10;1.00;;;;;;5010798;28;20499;-57
2023/04/30 12:46:49;;;;;;;4.10;1.60;;;32.10;1.00;;;;;;5004309;28;20057;-55
2023/04/30 12:49:25;;;;;;;4.13;1.20;;;33.10;99.90;;;;;;5010443;28;20116;-56
2023/04/30 12:51:51;;;;;;;5.05;1.30;;;34.60;99.90;;;;;;5010607;28;20038;-57
2023/04/30 12:54:31;;;;;;;4.18;1.35;;;34.00;99.90;;;;;;5010644;28;20081;-53
2023/04/30 12:57:11;;;;;;;6.20;1.50;;;33.40;99.90;;;;;;5010178;28;20038;-54
2023/04/30 12:59:39;;;;;;;3.53;1.13;;;32.80;99.90;;;;;;5010117;28;20488;-56
2023/04/30 13:02:10;;;;;;;5.22;1.63;;;32.30;99.90;;;;;;5010425;28;20579;-54
2023/04/30 13:04:36;;;;;;;3.15;1.20;;;33.60;99.90;;;;;;5009804;28;20041;-57
2023/04/30 13:07:03;;;;;;;4.43;1.30;;;33.10;99.90;;;;;;5010204;28;20041;-57
2023/04/30 13:09:29;;;;;;;2.95;1.05;;;33.80;99.90;;;;;;5008543;28;20049;-56
2023/04/30 13:11:55;;;;;;;7.85;1.48;;;35.60;99.90;;;;;;5010336;28;20484;-57